CPX218 Details

Departure: Chicago/Rockford International Airport (KRFD) at 0030 UTC
Arrival: March Air Reserve Base (KRIV) at 0415 UTC
Route: PLL IOW J192 PWE GCK J96 GUP J134 TRM ARKOE1
Notes:


Current Weather Information
KRFD 231254Z 19005KT 10SM SCT250 02/M01 A2992 RMK AO2 SLP135 T00221006
KRIV 231158Z AUTO 00000KT 10SM CLR 09/M02 A2996 RMK AO2 SLP135 T00891018 10184 20085 56010